createdAt,value
2018-07-16T00:00:52.490Z,47.00
2018-07-16T00:03:21.992Z,47.20
2018-07-16T00:08:21.000Z,48.20
2018-07-16T00:10:50.504Z,48.80
2018-07-16T00:15:49.515Z,48.80
2018-07-16T00:18:19.070Z,48.80
2018-07-16T00:20:48.933Z,48.80
2018-07-16T00:23:19.548Z,48.80
2018-07-16T00:25:49.579Z,48.70
2018-07-16T00:28:19.076Z,48.60
2018-07-16T00:30:48.579Z,48.80
2018-07-16T00:33:18.104Z,48.90
2018-07-16T00:35:47.856Z,49.20
2018-07-16T00:38:17.525Z,48.90
2018-07-16T00:40:47.045Z,48.90
2018-07-16T00:43:16.997Z,49.10
2018-07-16T00:45:46.461Z,49.20
2018-07-16T00:48:16.193Z,49.80
2018-07-16T00:50:46.353Z,51.00
2018-07-16T00:53:16.052Z,51.50
2018-07-16T00:55:45.726Z,52.20
2018-07-16T00:58:15.231Z,52.10
2018-07-16T01:00:44.873Z,51.60
2018-07-16T01:03:14.465Z,51.30
2018-07-16T01:05:43.120Z,51.10
2018-07-16T01:08:11.782Z,51.00
2018-07-16T01:10:40.550Z,51.00
2018-07-16T01:13:10.193Z,50.90
2018-07-16T01:15:39.919Z,51.00
2018-07-16T01:18:08.790Z,50.90
2018-07-16T01:20:37.460Z,50.90
2018-07-16T01:23:06.276Z,50.90
2018-07-16T01:25:35.038Z,51.20
2018-07-16T01:28:03.788Z,51.90
2018-07-16T01:30:33.467Z,52.20
2018-07-16T01:33:03.383Z,52.40
2018-07-16T01:35:32.150Z,52.80
2018-07-16T01:38:00.823Z,52.80
2018-07-16T01:40:29.496Z,52.80
2018-07-16T01:42:58.169Z,52.80
2018-07-16T01:45:26.896Z,53.10
2018-07-16T01:47:55.561Z,53.10
2018-07-16T01:50:24.978Z,53.10
2018-07-16T01:52:54.541Z,53.20
2018-07-16T01:55:23.297Z,53.20
2018-07-16T01:57:51.961Z,53.30
2018-07-16T02:00:20.872Z,53.40
2018-07-16T02:02:49.563Z,53.20
2018-07-16T02:05:18.237Z,53.20
2018-07-16T02:07:46.912Z,53.20
2018-07-16T02:10:15.653Z,53.30
2018-07-16T02:12:45.243Z,53.30
2018-07-16T02:15:13.906Z,53.30
2018-07-16T02:17:42.581Z,53.30
2018-07-16T02:20:11.288Z,53.30
2018-07-16T02:22:40.071Z,53.30
2018-07-16T02:25:09.173Z,53.20
2018-07-16T02:27:37.982Z,53.20
2018-07-16T02:30:06.739Z,53.20
2018-07-16T02:32:35.592Z,53.30
2018-07-16T02:35:04.387Z,53.30
2018-07-16T02:37:33.020Z,53.00
2018-07-16T02:40:01.697Z,53.10
2018-07-16T02:42:30.342Z,53.00
2018-07-16T02:44:59.017Z,52.80
2018-07-16T02:47:27.672Z,52.80
2018-07-16T02:49:56.436Z,52.70
2018-07-16T02:52:25.836Z,52.50
2018-07-16T02:54:54.529Z,52.40
2018-07-16T02:57:23.184Z,52.20
2018-07-16T02:59:51.907Z,52.60
2018-07-16T03:02:20.638Z,52.10
2018-07-16T03:04:49.602Z,51.90
2018-07-16T03:07:18.395Z,51.80
2018-07-16T03:09:47.224Z,51.80
2018-07-16T03:12:15.916Z,50.40
2018-07-16T03:14:44.570Z,49.70
2018-07-16T03:17:13.439Z,48.20
2018-07-16T03:19:43.008Z,46.70
2018-07-16T03:22:11.786Z,45.10
2018-07-16T03:24:40.435Z,43.70
2018-07-16T03:27:09.118Z,42.50
2018-07-16T03:29:37.868Z,41.10
2018-07-16T03:32:06.715Z,39.90
2018-07-16T03:34:36.490Z,38.80
2018-07-16T03:37:05.201Z,38.10
2018-07-16T03:39:33.921Z,37.20
2018-07-16T03:42:02.594Z,36.20
2018-07-16T03:44:31.369Z,35.50
2018-07-16T03:47:00.016Z,35.50
2018-07-16T03:49:28.744Z,35.90
2018-07-16T03:51:58.279Z,36.20
2018-07-16T03:54:26.943Z,36.90
2018-07-16T03:56:56.632Z,37.50
2018-07-16T03:59:25.292Z,37.60
2018-07-16T04:01:53.989Z,37.60
2018-07-16T04:04:22.628Z,36.90
2018-07-16T04:06:52.567Z,36.00
2018-07-16T04:09:22.072Z,34.70
2018-07-16T04:11:50.731Z,34.10
2018-07-16T04:14:19.366Z,33.30
2018-07-16T04:16:48.011Z,32.40
2018-07-16T04:21:47.409Z,31.60
2018-07-16T04:24:16.049Z,31.10
2018-07-16T04:26:44.742Z,30.50
2018-07-16T04:29:14.831Z,29.90
2018-07-16T04:31:43.583Z,29.80
2018-07-16T04:34:12.318Z,30.00
2018-07-16T04:36:40.994Z,29.50
2018-07-16T04:39:09.651Z,29.50
2018-07-16T04:41:38.331Z,29.60
2018-07-16T04:44:08.290Z,29.90
2018-07-16T04:46:36.929Z,30.00
2018-07-16T04:49:05.748Z,30.10
2018-07-16T04:51:34.490Z,30.00
2018-07-16T04:54:03.190Z,29.60
2018-07-16T04:56:31.827Z,29.60
2018-07-16T04:59:00.521Z,29.40
2018-07-16T05:01:29.255Z,29.30
2018-07-16T05:03:58.064Z,29.30
2018-07-16T05:06:27.928Z,29.40
2018-07-16T05:08:56.725Z,29.10
2018-07-16T05:11:25.419Z,28.80
2018-07-16T05:13:55.265Z,28.70
2018-07-16T05:16:25.180Z,28.60
2018-07-16T05:18:53.908Z,28.50
2018-07-16T05:21:23.404Z,28.40
2018-07-16T05:23:52.114Z,28.20
2018-07-16T05:26:20.928Z,27.90
2018-07-16T05:28:50.494Z,27.90
2018-07-16T05:31:19.148Z,27.90
2018-07-16T05:33:48.863Z,27.70
2018-07-16T05:36:17.674Z,27.50
2018-07-16T05:38:47.012Z,27.50
2018-07-16T05:41:16.976Z,27.50
2018-07-16T05:43:45.692Z,27.70
2018-07-16T05:46:14.362Z,27.80
2018-07-16T05:48:43.033Z,28.00
2018-07-16T05:51:11.707Z,28.20
2018-07-16T05:53:41.249Z,28.40
2018-07-16T05:56:09.856Z,28.20
2018-07-16T05:58:39.933Z,28.40
2018-07-16T06:01:09.707Z,28.80
2018-07-16T06:03:38.371Z,28.80
2018-07-16T06:06:07.024Z,29.20
2018-07-16T06:08:36.845Z,29.50
2018-07-16T06:11:05.536Z,30.00
2018-07-16T06:13:34.217Z,30.50
2018-07-16T06:16:02.910Z,30.40
2018-07-16T06:18:31.589Z,30.30
2018-07-16T06:21:00.247Z,30.60
2018-07-16T06:23:29.010Z,31.50
2018-07-16T06:25:57.681Z,31.80
2018-07-16T06:28:26.314Z,31.50
2018-07-16T06:30:54.983Z,31.50
2018-07-16T06:33:23.642Z,32.10
2018-07-16T06:35:52.440Z,31.70
2018-07-16T06:38:21.095Z,32.40
2018-07-16T06:40:50.050Z,32.60
2018-07-16T06:43:18.498Z,32.50
2018-07-16T06:45:48.145Z,32.50
2018-07-16T06:48:16.869Z,32.50
2018-07-16T06:50:45.520Z,32.30
2018-07-16T06:53:14.357Z,32.70
2018-07-16T06:55:43.308Z,32.40
2018-07-16T06:58:12.006Z,32.20
2018-07-16T07:00:40.733Z,32.20
2018-07-16T07:03:09.607Z,31.50
2018-07-16T07:05:39.572Z,30.60
2018-07-16T07:08:08.388Z,31.40
2018-07-16T07:10:37.841Z,31.00
2018-07-16T07:13:07.336Z,30.50
2018-07-16T07:15:36.013Z,30.00
2018-07-16T07:18:05.964Z,30.40
2018-07-16T07:20:34.744Z,30.90
2018-07-16T07:23:03.425Z,30.80
2018-07-16T07:25:32.941Z,30.50
2018-07-16T07:28:02.546Z,30.30
2018-07-16T07:30:32.092Z,30.00
2018-07-16T07:33:02.191Z,32.20
2018-07-16T07:35:32.503Z,32.90
2018-07-16T07:38:01.183Z,28.90
2018-07-16T07:40:29.799Z,29.40
2018-07-16T07:42:58.487Z,29.70
2018-07-16T07:45:27.223Z,26.50
2018-07-16T07:47:55.863Z,29.00
2018-07-16T07:50:25.865Z,27.00
2018-07-16T07:52:55.325Z,27.70
2018-07-16T07:55:25.749Z,27.50
2018-07-16T07:57:55.116Z,27.00
2018-07-16T08:00:24.904Z,25.00
2018-07-16T08:02:54.484Z,22.60
2018-07-16T08:05:24.104Z,23.70
2018-07-16T08:07:53.602Z,24.10
2018-07-16T08:10:23.333Z,25.00
2018-07-16T08:12:52.902Z,23.70
2018-07-16T08:15:23.479Z,23.00
2018-07-16T08:17:52.889Z,25.30
2018-07-16T08:20:22.345Z,21.00
2018-07-16T08:22:52.097Z,19.90
2018-07-16T08:25:22.009Z,19.30
2018-07-16T08:27:51.930Z,18.00
2018-07-16T08:30:21.856Z,18.90
2018-07-16T08:32:51.800Z,19.60
2018-07-16T08:35:21.664Z,20.90
2018-07-16T08:37:51.938Z,21.40
2018-07-16T08:40:21.686Z,21.80
2018-07-16T08:42:51.219Z,21.40
2018-07-16T08:45:20.704Z,21.80
2018-07-16T08:47:50.207Z,22.00
2018-07-16T08:50:19.724Z,21.90
2018-07-16T08:52:49.315Z,22.40
2018-07-16T08:55:18.823Z,22.60
2018-07-16T08:57:48.308Z,22.70
2018-07-16T09:00:18.093Z,22.10
2018-07-16T09:02:47.682Z,22.10
2018-07-16T09:05:17.127Z,22.00
2018-07-16T09:07:46.765Z,22.30
2018-07-16T09:10:16.157Z,22.50
2018-07-16T09:12:45.643Z,22.90
2018-07-16T09:17:44.782Z,22.50
2018-07-16T09:20:14.590Z,22.90
2018-07-16T09:22:44.501Z,22.80
2018-07-16T09:25:14.020Z,22.80
2018-07-16T09:27:43.552Z,22.80
2018-07-16T09:30:13.137Z,23.00
2018-07-16T09:32:42.557Z,23.10
2018-07-16T09:35:12.165Z,23.10
2018-07-16T09:37:41.747Z,23.60
2018-07-16T09:40:11.496Z,23.20
2018-07-16T09:42:40.950Z,23.70
2018-07-16T09:45:10.462Z,23.70
2018-07-16T09:47:40.175Z,24.30
2018-07-16T09:50:09.898Z,24.40
2018-07-16T09:52:39.916Z,24.60
2018-07-16T09:55:08.827Z,24.60
2018-07-16T09:57:38.810Z,25.10
2018-07-16T10:00:08.721Z,24.80
2018-07-16T10:02:38.619Z,25.10
2018-07-16T10:05:08.515Z,24.80
2018-07-16T10:07:38.031Z,24.30
2018-07-16T10:10:07.776Z,24.80
2018-07-16T10:12:37.588Z,25.20
2018-07-16T10:15:07.374Z,25.60
2018-07-16T10:17:37.356Z,25.40
2018-07-16T10:21:36.549Z,25.20
2018-07-16T10:24:06.422Z,25.30
2018-07-16T10:26:35.529Z,25.50
2018-07-16T10:29:05.328Z,25.70
2018-07-16T10:31:34.628Z,25.50
2018-07-16T10:34:04.043Z,25.00
2018-07-16T10:36:33.532Z,25.00
2018-07-16T10:41:32.558Z,24.60
2018-07-16T10:44:02.461Z,24.70
2018-07-16T10:46:32.504Z,24.90
2018-07-16T10:49:02.297Z,24.90
2018-07-16T10:51:32.346Z,24.60
2018-07-16T10:54:01.761Z,24.20
2018-07-16T10:56:31.503Z,24.10
2018-07-16T10:59:00.753Z,23.50
2018-07-16T11:01:30.657Z,23.90
2018-07-16T11:04:00.565Z,23.50
2018-07-16T11:06:30.298Z,23.30
2018-07-16T11:09:00.341Z,22.90
2018-07-16T11:11:30.228Z,23.30
2018-07-16T11:14:00.103Z,23.00
2018-07-16T11:16:29.963Z,23.00
2018-07-16T11:19:00.011Z,23.40
2018-07-16T11:21:29.519Z,23.00
2018-07-16T11:23:59.358Z,23.00
2018-07-16T11:26:29.296Z,22.80
2018-07-16T11:28:59.116Z,22.60
2018-07-16T11:31:28.810Z,22.70
2018-07-16T11:33:58.530Z,22.30
2018-07-16T11:36:28.451Z,22.80
2018-07-16T11:38:58.180Z,22.50
2018-07-16T11:41:27.625Z,21.90
2018-07-16T11:46:26.762Z,22.10
2018-07-16T11:48:56.405Z,22.10
2018-07-16T11:51:26.339Z,22.00
2018-07-16T11:53:56.396Z,22.00
2018-07-16T11:56:26.308Z,21.90
2018-07-16T11:58:56.277Z,21.70
2018-07-16T12:01:25.978Z,21.60
2018-07-16T12:03:55.207Z,21.80
2018-07-16T12:06:25.470Z,21.80
2018-07-16T12:11:25.227Z,22.00
2018-07-16T12:13:54.976Z,22.20
2018-07-16T12:16:24.401Z,22.40
2018-07-16T12:18:53.887Z,22.60
2018-07-16T12:21:23.640Z,21.90
2018-07-16T12:23:53.551Z,22.00
2018-07-16T12:26:23.478Z,21.80
2018-07-16T12:28:53.419Z,21.80
2018-07-16T12:31:23.342Z,21.90
2018-07-16T12:33:53.540Z,21.60
2018-07-16T12:36:23.319Z,21.20
2018-07-16T12:38:53.233Z,21.90
2018-07-16T12:41:22.811Z,21.70
2018-07-16T12:43:52.248Z,21.70
2018-07-16T12:46:21.737Z,21.60
2018-07-16T12:48:51.475Z,21.70
2018-07-16T12:51:21.560Z,22.10
2018-07-16T12:56:20.586Z,21.90
2018-07-16T12:58:50.485Z,21.60
2018-07-16T13:01:20.417Z,21.70
2018-07-16T13:03:50.438Z,21.60
2018-07-16T13:06:22.660Z,21.80
2018-07-16T13:08:53.438Z,22.00
2018-07-16T13:11:22.949Z,22.10
2018-07-16T13:13:52.036Z,22.10
2018-07-16T13:16:21.982Z,21.70
2018-07-16T13:18:51.715Z,22.20
2018-07-16T13:21:21.390Z,22.00
2018-07-16T13:23:51.109Z,22.60
2018-07-16T13:26:21.330Z,22.60
2018-07-16T13:28:51.108Z,22.90
2018-07-16T13:31:21.257Z,23.50
2018-07-16T13:33:51.191Z,23.80
2018-07-16T13:36:21.003Z,24.00
2018-07-16T13:38:50.344Z,24.60
2018-07-16T13:41:19.856Z,25.50
2018-07-16T13:43:49.626Z,26.20
2018-07-16T13:46:19.554Z,24.90
2018-07-16T13:48:49.659Z,24.70
2018-07-16T13:51:18.758Z,24.50
2018-07-16T13:53:48.638Z,24.30
2018-07-16T13:56:18.161Z,24.20
2018-07-16T13:58:48.058Z,24.90
2018-07-16T14:01:17.522Z,24.00
2018-07-16T14:03:47.046Z,24.00
2018-07-16T14:06:16.562Z,24.40
2018-07-16T14:08:45.302Z,25.40
2018-07-16T14:11:14.874Z,24.80
2018-07-16T14:13:43.556Z,25.40
2018-07-16T14:16:13.262Z,25.00
2018-07-16T14:18:41.945Z,26.70
2018-07-16T14:21:10.651Z,25.20
2018-07-16T14:23:39.492Z,24.80
2018-07-16T14:26:08.924Z,25.30
2018-07-16T14:28:37.773Z,24.90
2018-07-16T14:31:06.485Z,25.10
2018-07-16T14:33:35.184Z,25.40
2018-07-16T14:36:03.894Z,24.90
2018-07-16T14:38:33.993Z,25.60
2018-07-16T14:41:02.727Z,24.90
2018-07-16T14:43:31.453Z,25.40
2018-07-16T14:46:00.115Z,24.70
2018-07-16T14:48:29.970Z,24.60
2018-07-16T14:50:58.785Z,24.60
2018-07-16T14:53:28.138Z,26.10
2018-07-16T14:55:56.817Z,27.00
2018-07-16T14:58:25.578Z,28.10
2018-07-16T15:00:54.993Z,30.00
2018-07-16T15:03:23.739Z,26.20
2018-07-16T15:05:52.409Z,26.10
2018-07-16T15:08:21.024Z,25.50
2018-07-16T15:10:49.730Z,26.30
2018-07-16T15:13:19.392Z,26.00
2018-07-16T15:15:48.042Z,26.00
2018-07-16T15:18:16.651Z,25.00
2018-07-16T15:20:45.743Z,25.30
2018-07-16T15:23:14.217Z,25.00
2018-07-16T15:25:42.895Z,24.30
2018-07-16T15:28:12.254Z,24.60
2018-07-16T15:30:40.951Z,24.80
2018-07-16T15:33:10.760Z,24.90
2018-07-16T15:35:39.432Z,24.70
2018-07-16T15:38:09.012Z,24.50
2018-07-16T15:40:38.623Z,24.40
2018-07-16T15:43:08.042Z,25.10
2018-07-16T15:45:38.087Z,24.50
2018-07-16T15:48:06.896Z,24.00
2018-07-16T15:53:05.270Z,24.40
2018-07-16T15:55:34.040Z,24.30
2018-07-16T15:58:02.667Z,24.10
2018-07-16T16:00:32.369Z,23.80
2018-07-16T16:03:01.033Z,24.30
2018-07-16T16:05:31.224Z,24.90
2018-07-16T16:07:59.899Z,24.50
2018-07-16T16:10:28.625Z,25.20
2018-07-16T16:12:57.347Z,25.60
2018-07-16T16:15:27.115Z,25.90
2018-07-16T16:17:55.782Z,25.60
2018-07-16T16:20:24.539Z,25.60
2018-07-16T16:22:53.217Z,26.60
2018-07-16T16:25:21.898Z,26.60
2018-07-16T16:27:50.733Z,25.70
2018-07-16T16:30:19.591Z,25.60
2018-07-16T16:32:49.588Z,24.40
2018-07-16T16:35:19.644Z,24.50
2018-07-16T16:37:48.337Z,24.80
2018-07-16T16:40:17.646Z,25.20
2018-07-16T16:42:46.340Z,25.10
2018-07-16T16:45:15.169Z,25.40
2018-07-16T16:47:43.834Z,25.70
2018-07-16T16:50:13.627Z,25.40
2018-07-16T16:52:43.247Z,25.60
2018-07-16T16:55:11.969Z,25.90
2018-07-16T16:57:40.606Z,26.70
2018-07-16T17:00:10.474Z,26.70
2018-07-16T17:02:44.438Z,27.10
2018-07-16T17:05:15.424Z,27.50
2018-07-16T17:07:44.065Z,26.70
2018-07-16T17:10:13.756Z,27.10
2018-07-16T17:12:42.417Z,26.70
2018-07-16T17:15:11.099Z,26.60
2018-07-16T17:17:39.843Z,26.70
2018-07-16T17:20:08.566Z,26.40
2018-07-16T17:22:37.254Z,26.70
2018-07-16T17:25:06.282Z,26.30
2018-07-16T17:27:34.974Z,26.60
2018-07-16T17:30:03.869Z,26.10
2018-07-16T17:32:32.667Z,26.10
2018-07-16T17:35:01.519Z,26.10
2018-07-16T17:37:30.172Z,25.60
2018-07-16T17:39:58.837Z,25.80
2018-07-16T17:42:28.740Z,26.30
2018-07-16T17:44:57.464Z,26.50
2018-07-16T17:47:26.097Z,26.60
2018-07-16T17:49:54.982Z,26.60
2018-07-16T17:52:23.675Z,26.50
2018-07-16T17:54:52.365Z,26.60
2018-07-16T17:57:21.047Z,26.90
2018-07-16T17:59:49.741Z,27.20
2018-07-16T18:02:18.449Z,27.40
2018-07-16T18:04:47.960Z,27.70
2018-07-16T18:07:20.627Z,27.60
2018-07-16T18:09:50.596Z,27.80
2018-07-16T18:12:19.366Z,28.00
2018-07-16T18:14:49.452Z,28.20
2018-07-16T18:17:18.132Z,28.20
2018-07-16T18:19:46.927Z,28.40
2018-07-16T18:22:15.598Z,28.80
2018-07-16T18:24:44.270Z,29.00
2018-07-16T18:27:13.112Z,29.60
2018-07-16T18:29:41.813Z,29.30
2018-07-16T18:32:10.486Z,29.40
2018-07-16T18:34:40.434Z,29.40
2018-07-16T18:37:10.224Z,29.80
2018-07-16T18:39:38.921Z,29.70
2018-07-16T18:42:07.656Z,29.80
2018-07-16T18:44:37.362Z,29.90
2018-07-16T18:47:07.085Z,29.90
2018-07-16T18:49:35.996Z,29.80
2018-07-16T18:52:05.883Z,30.00
2018-07-16T18:54:35.812Z,29.90
2018-07-16T18:57:04.465Z,30.00
2018-07-16T18:59:33.093Z,29.90
2018-07-16T19:05:34.116Z,30.10
2018-07-16T19:08:02.811Z,30.20
2018-07-16T19:10:31.462Z,30.30
2018-07-16T19:13:00.127Z,30.60
2018-07-16T19:15:28.867Z,30.70
2018-07-16T19:17:58.189Z,30.70
2018-07-16T19:20:27.931Z,30.70
2018-07-16T19:22:56.598Z,30.90
2018-07-16T19:25:25.323Z,31.20
2018-07-16T19:27:54.016Z,31.20
2018-07-16T19:30:22.789Z,31.30
2018-07-16T19:32:51.514Z,31.40
2018-07-16T19:35:23.424Z,31.60
2018-07-16T19:37:53.219Z,31.70
2018-07-16T19:40:21.927Z,31.90
2018-07-16T19:42:51.601Z,32.10
2018-07-16T19:45:20.273Z,32.30
2018-07-16T19:47:50.272Z,32.50
2018-07-16T19:50:18.910Z,32.70
2018-07-16T19:52:47.556Z,32.90
2018-07-16T19:55:16.383Z,33.10
2018-07-16T19:57:45.003Z,33.30
2018-07-16T20:00:13.716Z,33.50
2018-07-16T20:02:43.709Z,33.60
2018-07-16T20:05:13.123Z,33.80
2018-07-16T20:10:10.933Z,33.60
2018-07-16T20:12:40.406Z,33.50
2018-07-16T20:15:09.966Z,33.90
2018-07-16T20:17:38.822Z,34.30
2018-07-16T20:20:09.907Z,34.50
2018-07-16T20:22:39.768Z,34.70
2018-07-16T20:25:08.827Z,34.80
2018-07-16T20:27:37.684Z,34.80
2018-07-16T20:30:08.768Z,35.00
2018-07-16T20:32:38.902Z,35.00
2018-07-16T20:35:07.718Z,35.10
2018-07-16T20:37:36.880Z,35.20
2018-07-16T20:40:05.666Z,35.20
2018-07-16T20:42:34.343Z,35.30
2018-07-16T20:45:04.287Z,35.40
2018-07-16T20:47:33.720Z,35.60
2018-07-16T20:50:02.428Z,35.60
2018-07-16T20:52:32.160Z,35.80
2018-07-16T20:55:00.843Z,35.90
2018-07-16T20:57:29.596Z,36.00
2018-07-16T20:59:58.295Z,36.20
2018-07-16T21:02:26.963Z,36.30
2018-07-16T21:04:55.599Z,36.20
2018-07-16T21:07:24.393Z,36.30
2018-07-16T21:09:53.894Z,36.60
2018-07-16T21:12:23.638Z,36.70
2018-07-16T21:14:52.284Z,36.70
2018-07-16T21:17:21.199Z,37.40
2018-07-16T21:19:49.939Z,36.90
2018-07-16T21:22:18.646Z,37.00
2018-07-16T21:24:47.323Z,36.80
2018-07-16T21:27:16.171Z,36.90
2018-07-16T21:29:44.832Z,37.30
2018-07-16T21:32:13.525Z,37.60
2018-07-16T21:34:43.021Z,37.70
2018-07-16T21:37:12.954Z,37.60
2018-07-16T21:39:42.894Z,38.10
2018-07-16T21:42:12.768Z,38.20
2018-07-16T21:44:41.406Z,38.50
2018-07-16T21:47:11.121Z,38.70
2018-07-16T21:49:40.696Z,39.00
2018-07-16T21:52:09.363Z,39.00
2018-07-16T21:54:38.169Z,39.00
2018-07-16T21:57:07.735Z,39.20
2018-07-16T21:59:36.372Z,40.10
2018-07-16T22:02:05.165Z,39.70
2018-07-16T22:04:33.842Z,39.80
2018-07-16T22:07:02.667Z,40.30
2018-07-16T22:09:32.010Z,40.10
2018-07-16T22:12:00.839Z,40.10
2018-07-16T22:14:29.851Z,40.20
2018-07-16T22:16:58.645Z,40.30
2018-07-16T22:19:27.351Z,40.40
2018-07-16T22:21:57.515Z,40.40
2018-07-16T22:24:27.414Z,40.70
2018-07-16T22:26:57.605Z,40.90
2018-07-16T22:29:27.538Z,40.90
2018-07-16T22:31:57.587Z,41.30
2018-07-16T22:34:27.027Z,41.50
2018-07-16T22:36:55.739Z,41.80
2018-07-16T22:39:25.718Z,41.90
2018-07-16T22:41:55.424Z,42.20
2018-07-16T22:44:25.181Z,42.10
2018-07-16T22:46:54.559Z,42.20
2018-07-16T22:49:24.224Z,42.20
2018-07-16T22:51:53.693Z,42.20
2018-07-16T22:54:23.080Z,42.40
2018-07-16T22:56:52.625Z,42.80
2018-07-16T22:59:22.359Z,42.70
2018-07-16T23:01:52.034Z,43.10
2018-07-16T23:04:22.403Z,43.50
2018-07-16T23:06:51.887Z,43.90
2018-07-16T23:09:21.344Z,43.70
2018-07-16T23:11:51.272Z,44.20
2018-07-16T23:14:21.240Z,44.50
2018-07-16T23:16:51.272Z,44.40
2018-07-16T23:19:20.922Z,44.60
2018-07-16T23:21:50.527Z,44.70
2018-07-16T23:26:49.568Z,45.20
2018-07-16T23:29:19.424Z,45.20
2018-07-16T23:31:48.993Z,45.40
2018-07-16T23:34:18.824Z,45.60
2018-07-16T23:36:48.766Z,45.60
2018-07-16T23:39:18.286Z,46.00
2018-07-16T23:41:47.522Z,46.10
2018-07-16T23:44:17.313Z,46.40
2018-07-16T23:46:47.174Z,46.50
2018-07-16T23:49:16.767Z,47.20
2018-07-16T23:51:46.280Z,46.40
2018-07-16T23:54:15.778Z,46.40
2018-07-16T23:56:45.242Z,46.30
2018-07-16T23:59:15.187Z,46.30
